Time;durP1;ratioP1;P1;durP2;ratioP2;P2;SDS_P1;SDS_P2;PMS_P1;PMS_P2;Temp;Humidity;BMP_temperature;BMP_pressure;BME280_temperature;BME280_humidity;BME280_pressure;Samples;Min_cycle;Max_cycle;Signal;HPM_P1;HPM_P2
2021/12/07 00:01:08;;;;;;;21.43;20.30;;;;;;;;;;5094135;28;20221;-79
2021/12/07 00:03:35;;;;;;;19.80;18.80;;;;;;;;;;5094133;28;20289;-78
2021/12/07 00:06:02;;;;;;;20.63;19.63;;;;;;;;;;5093733;28;20205;-78
2021/12/07 00:08:29;;;;;;;20.00;19.00;;;;;;;;;;5093738;28;20698;-80
2021/12/07 00:10:56;;;;;;;20.57;19.57;;;;;;;;;;5093971;28;20196;-78
2021/12/07 00:13:24;;;;;;;20.73;19.73;;;;;;;;;;5094017;28;20642;-78
2021/12/07 00:15:52;;;;;;;20.60;19.50;;;;;;;;;;5093943;28;20277;-78
2021/12/07 00:18:19;;;;;;;22.20;21.10;;;;;;;;;;5093583;28;20196;-76
2021/12/07 00:20:46;;;;;;;21.70;20.60;;;;;;;;;;5093656;28;20404;-77
2021/12/07 00:23:12;;;;;;;21.20;20.10;;;;;;;;;;5093407;28;20675;-78
2021/12/07 00:25:39;;;;;;;22.90;21.70;;;;;;;;;;5093633;28;20194;-78
2021/12/07 00:28:06;;;;;;;22.00;20.87;;;;;;;;;;5093657;28;20204;-79
2021/12/07 00:30:34;;;;;;;22.03;20.93;;;;;;;;;;5093032;28;20321;-78
2021/12/07 00:33:12;;;;;;;18.10;17.20;;;;;;;;;;5093575;28;20255;-80
2021/12/07 00:35:39;;;;;;;21.73;20.43;;;;;;;;;;5093486;28;20190;-78
2021/12/07 00:38:09;;;;;;;21.13;20.03;;;;;;;;;;5093416;28;20198;-78
2021/12/07 00:40:36;;;;;;;21.57;20.47;;;;;;;;;;5092982;28;20309;-76
2021/12/07 00:43:02;;;;;;;20.73;19.63;;;;;;;;;;5093251;28;20198;-80
2021/12/07 00:45:32;;;;;;;18.03;17.13;;;;;;;;;;5093318;28;20225;-79
2021/12/07 00:47:58;;;;;;;19.43;18.40;;;;;;;;;;5092883;28;20653;-77
2021/12/07 00:50:27;;;;;;;19.43;18.53;;;;;;;;;;5092600;28;20289;-77
2021/12/07 00:52:54;;;;;;;19.03;18.13;;;;;;;;;;5092718;28;20259;-78
2021/12/07 00:55:23;;;;;;;19.70;18.80;;;;;;;;;;5092799;28;20225;-76
2021/12/07 00:57:53;;;;;;;20.23;19.23;;;;;;;;;;5093065;28;20637;-77
2021/12/07 01:00:20;;;;;;;18.17;17.27;;;;;;;;;;5092832;28;20197;-78
2021/12/07 01:02:46;;;;;;;19.17;18.27;;;;;;;;;;5092997;28;20217;-77
2021/12/07 01:05:18;;;;;;;17.30;16.40;;;;;;;;;;5092654;28;20229;-77
2021/12/07 01:08:15;;;;;;;16.80;16.00;;;;;;;;;;5093053;28;20247;-77
2021/12/07 01:24:43;;;;;;;16.80;16.10;;;;;;;;;;5092712;28;20176;-76
2021/12/07 01:27:11;;;;;;;16.93;16.13;;;;;;;;;;5092758;28;20281;-75
2021/12/07 01:29:39;;;;;;;16.57;15.87;;;;;;;;;;5092050;28;20694;-75
2021/12/07 01:32:16;;;;;;;16.10;15.40;;;;;;;;;;5092569;28;20193;-75
2021/12/07 01:37:37;;;;;;;17.97;17.17;;;;;;;;;;5092424;28;20349;-75
2021/12/07 01:46:22;;;;;;;17.63;16.83;;;;;;;;;;5009201;28;20678;-78
2021/12/07 01:59:47;;;;;;;17.23;16.53;;;;;;;;;;5010276;28;20319;-85
2021/12/07 02:02:15;;;;;;;17.80;17.00;;;;;;;;;;5010942;28;20328;-77
2021/12/07 02:04:42;;;;;;;19.80;18.30;;;;;;;;;;5014073;28;20258;-79
2021/12/07 02:07:09;;;;;;;16.63;15.93;;;;;;;;;;5014033;28;20224;-79
2021/12/07 02:09:37;;;;;;;17.33;16.63;;;;;;;;;;5013989;28;20228;-77
2021/12/07 02:12:07;;;;;;;18.47;17.57;;;;;;;;;;5013889;28;20258;-78
2021/12/07 02:14:34;;;;;;;16.90;16.20;;;;;;;;;;5074518;28;20206;-78
2021/12/07 02:17:02;;;;;;;16.47;15.77;;;;;;;;;;5096708;28;20277;-77
2021/12/07 02:19:29;;;;;;;16.97;16.27;;;;;;;;;;5096965;28;20204;-78
2021/12/07 02:21:58;;;;;;;16.50;15.80;;;;;;;;;;5096711;28;20787;-77
2021/12/07 02:24:25;;;;;;;17.93;17.10;;;;;;;;;;5096083;28;20189;-77
2021/12/07 02:26:52;;;;;;;17.80;17.10;;;;;;;;;;5096573;28;20225;-77
2021/12/07 02:29:20;;;;;;;17.27;16.07;;;;;;;;;;5096522;28;20261;-77
2021/12/07 02:31:47;;;;;;;18.17;17.20;;;;;;;;;;5096281;28;20254;-75
2021/12/07 02:34:14;;;;;;;19.20;17.57;;;;;;;;;;5096313;28;20232;-76
2021/12/07 02:36:41;;;;;;;17.83;17.07;;;;;;;;;;5095818;28;20204;-76
2021/12/07 02:39:10;;;;;;;16.70;16.00;;;;;;;;;;5095921;28;20245;-77
2021/12/07 02:41:37;;;;;;;16.70;16.00;;;;;;;;;;5095596;28;20225;-90
2021/12/07 02:44:06;;;;;;;16.80;16.10;;;;;;;;;;5095933;28;20198;-77
2021/12/07 02:46:33;;;;;;;16.30;15.60;;;;;;;;;;5096317;28;20228;-76
2021/12/07 02:49:00;;;;;;;17.70;16.90;;;;;;;;;;5095696;28;20641;-76
2021/12/07 02:51:27;;;;;;;18.37;17.37;;;;;;;;;;5095458;28;20294;-77
2021/12/07 02:53:55;;;;;;;17.10;16.40;;;;;;;;;;5095080;28;20200;-80
2021/12/07 02:56:24;;;;;;;17.23;16.53;;;;;;;;;;5095091;28;20190;-77
2021/12/07 02:58:55;;;;;;;15.37;14.77;;;;;;;;;;5095012;28;20285;-76
2021/12/07 03:01:27;;;;;;;16.37;15.67;;;;;;;;;;5094965;28;20271;-76
2021/12/07 03:04:00;;;;;;;18.47;17.77;;;;;;;;;;5095351;28;20182;-80
2021/12/07 03:06:36;;;;;;;17.27;16.57;;;;;;;;;;5095219;28;20190;-76
2021/12/07 03:26:04;;;;;;;15.37;14.77;;;;;;;;;;5095272;28;20266;-76
2021/12/07 03:28:33;;;;;;;16.30;15.60;;;;;;;;;;5095094;28;20273;-77
2021/12/07 03:31:01;;;;;;;17.50;16.80;;;;;;;;;;5095005;28;20729;-76
2021/12/07 03:33:27;;;;;;;16.03;15.33;;;;;;;;;;5094874;28;20250;-76
2021/12/07 03:35:54;;;;;;;16.40;15.70;;;;;;;;;;5095000;28;20621;-77
2021/12/07 03:38:21;;;;;;;17.27;16.50;;;;;;;;;;5094551;28;20197;-77
2021/12/07 03:40:48;;;;;;;16.87;16.17;;;;;;;;;;5094415;28;20197;-76
2021/12/07 03:43:15;;;;;;;16.13;15.43;;;;;;;;;;5094376;28;20197;-76
2021/12/07 03:45:43;;;;;;;16.30;15.60;;;;;;;;;;5094199;28;20251;-83
2021/12/07 03:48:10;;;;;;;16.83;16.13;;;;;;;;;;5094227;28;20285;-76
2021/12/07 03:50:37;;;;;;;15.07;14.37;;;;;;;;;;5094575;28;20233;-76
2021/12/07 03:53:04;;;;;;;17.40;16.60;;;;;;;;;;5094647;28;20251;-76
2021/12/07 03:55:31;;;;;;;15.93;15.23;;;;;;;;;;5094606;28;20228;-76
2021/12/07 03:57:58;;;;;;;16.83;16.13;;;;;;;;;;5094286;28;20252;-79
2021/12/07 04:00:27;;;;;;;18.13;17.33;;;;;;;;;;5093981;28;20236;-77
2021/12/07 04:02:55;;;;;;;16.33;15.63;;;;;;;;;;5094406;28;20226;-77
2021/12/07 04:05:23;;;;;;;17.63;16.83;;;;;;;;;;5093785;28;20664;-77
2021/12/07 04:07:50;;;;;;;17.00;16.30;;;;;;;;;;5094005;28;20674;-77
2021/12/07 04:10:18;;;;;;;16.30;15.60;;;;;;;;;;5094067;28;20197;-78
2021/12/07 04:12:45;;;;;;;15.47;14.87;;;;;;;;;;5094763;28;20245;-77
2021/12/07 04:15:13;;;;;;;15.33;14.73;;;;;;;;;;5093594;28;20225;-78
2021/12/07 04:17:40;;;;;;;16.50;15.80;;;;;;;;;;5093870;28;20289;-76
2021/12/07 04:20:09;;;;;;;16.23;15.53;;;;;;;;;;5093467;28;20202;-76
2021/12/07 04:22:36;;;;;;;17.20;16.50;;;;;;;;;;5093699;28;20271;-76
2021/12/07 04:25:03;;;;;;;16.80;16.10;;;;;;;;;;5093687;28;20194;-78
2021/12/07 04:27:34;;;;;;;15.70;15.00;;;;;;;;;;5093302;28;20225;-77
2021/12/07 04:30:01;;;;;;;16.60;15.90;;;;;;;;;;5093162;28;20728;-77
2021/12/07 04:32:28;;;;;;;15.40;14.70;;;;;;;;;;5093272;28;20557;-77
2021/12/07 04:34:54;;;;;;;16.03;15.33;;;;;;;;;;5093263;28;20194;-77
2021/12/07 04:37:23;;;;;;;17.33;16.63;;;;;;;;;;5094037;28;20232;-77
2021/12/07 04:39:52;;;;;;;17.23;16.43;;;;;;;;;;5093918;28;20244;-77
2021/12/07 04:42:18;;;;;;;17.57;16.83;;;;;;;;;;5093734;28;20230;-78
2021/12/07 04:44:52;;;;;;;17.17;16.37;;;;;;;;;;5094397;28;20214;-76
2021/12/07 04:47:31;;;;;;;19.67;18.77;;;;;;;;;;5093466;28;20215;-75
2021/12/07 04:50:23;;;;;;;21.00;20.00;;;;;;;;;;5093432;28;20189;-76
2021/12/07 04:58:19;;;;;;;17.20;16.40;;;;;;;;;;5093731;28;20189;-76
2021/12/07 05:00:46;;;;;;;18.20;17.30;;;;;;;;;;5093388;28;20225;-77
2021/12/07 05:03:14;;;;;;;16.23;15.43;;;;;;;;;;5093058;28;20220;-75
2021/12/07 05:05:46;;;;;;;19.60;18.70;;;;;;;;;;5093027;28;20190;-76
2021/12/07 05:08:17;;;;;;;20.60;19.70;;;;;;;;;;5092973;28;20239;-76
2021/12/07 05:11:12;;;;;;;20.90;19.90;;;;;;;;;;5093022;28;20269;-77
2021/12/07 05:13:49;;;;;;;19.50;18.60;;;;;;;;;;5092436;28;20579;-76
2021/12/07 05:23:52;;;;;;;16.77;15.97;;;;;;;;;;5057947;28;20699;-76
2021/12/07 05:24:50;;;;;;;17.30;16.50;;;;;;;;;;5092758;28;20244;-77
2021/12/07 05:38:31;;;;;;;18.90;17.83;;;;;;;;;;5091835;28;20200;-78
2021/12/07 05:40:59;;;;;;;19.80;18.70;;;;;;;;;;5092499;28;20216;-78
2021/12/07 05:43:26;;;;;;;19.97;18.87;;;;;;;;;;5092134;28;20696;-80
2021/12/07 05:45:53;;;;;;;22.30;21.00;;;;;;;;;;5092402;28;20284;-81
2021/12/07 05:48:20;;;;;;;19.70;18.60;;;;;;;;;;5092611;28;20194;-82
2021/12/07 05:50:47;;;;;;;20.13;18.93;;;;;;;;;;5092427;28;20202;-82
2021/12/07 05:53:14;;;;;;;21.43;20.23;;;;;;;;;;5093607;28;20264;-83
2021/12/07 05:55:40;;;;;;;21.50;20.30;;;;;;;;;;5095734;28;20277;-83
2021/12/07 05:58:09;;;;;;;21.93;20.73;;;;;;;;;;5098140;28;20240;-83
2021/12/07 06:00:36;;;;;;;20.93;19.73;;;;;;;;;;5100563;28;20190;-83
2021/12/07 06:03:04;;;;;;;21.73;20.53;;;;;;;;;;5102497;28;20254;-82
2021/12/07 06:05:31;;;;;;;22.50;21.30;;;;;;;;;;5095288;28;20193;-83
2021/12/07 06:07:58;;;;;;;21.00;19.80;;;;;;;;;;5094491;28;20202;-82
2021/12/07 06:10:25;;;;;;;20.83;19.63;;;;;;;;;;5093821;28;20189;-82
2021/12/07 06:12:51;;;;;;;21.63;20.43;;;;;;;;;;5097475;28;20321;-82
2021/12/07 06:15:22;;;;;;;21.27;20.07;;;;;;;;;;5093171;28;20236;-82
2021/12/07 06:17:49;;;;;;;20.40;19.20;;;;;;;;;;5092305;28;20186;-82
2021/12/07 06:20:16;;;;;;;20.90;19.70;;;;;;;;;;5092202;28;20200;-83
2021/12/07 06:22:43;;;;;;;21.57;20.37;;;;;;;;;;5091861;28;20640;-82
2021/12/07 06:25:10;;;;;;;21.40;20.20;;;;;;;;;;5093003;28;20281;-82
2021/12/07 06:27:38;;;;;;;21.80;20.57;;;;;;;;;;5091777;28;20261;-82
2021/12/07 06:30:05;;;;;;;26.90;25.40;;;;;;;;;;5091581;28;20232;-82
2021/12/07 06:32:33;;;;;;;25.03;23.63;;;;;;;;;;5091917;28;20261;-81
2021/12/07 06:35:00;;;;;;;23.30;22.00;;;;;;;;;;5091985;28;20194;-81
2021/12/07 06:37:26;;;;;;;22.93;21.63;;;;;;;;;;5091962;28;20280;-82
2021/12/07 06:39:53;;;;;;;21.10;19.90;;;;;;;;;;5091970;28;20233;-82
2021/12/07 06:42:20;;;;;;;19.13;18.03;;;;;;;;;;5091943;28;20202;-80
2021/12/07 06:44:47;;;;;;;20.37;19.27;;;;;;;;;;5091517;28;20208;-81
2021/12/07 06:47:13;;;;;;;22.03;20.83;;;;;;;;;;5091894;28;20253;-82
2021/12/07 06:49:42;;;;;;;22.53;21.23;;;;;;;;;;5092901;28;20198;-82
2021/12/07 06:52:08;;;;;;;22.10;20.90;;;;;;;;;;5095455;28;20229;-79
2021/12/07 06:54:36;;;;;;;22.80;21.50;;;;;;;;;;5095173;28;20616;-80
2021/12/07 06:57:03;;;;;;;23.73;22.43;;;;;;;;;;5095139;28;20284;-82
2021/12/07 06:59:29;;;;;;;21.83;20.57;;;;;;;;;;5095898;28;20243;-81
2021/12/07 07:01:56;;;;;;;23.97;22.57;;;;;;;;;;5094968;28;20671;-82
2021/12/07 07:04:23;;;;;;;22.90;21.60;;;;;;;;;;5095322;28;20255;-81
2021/12/07 07:06:51;;;;;;;26.50;25.00;;;;;;;;;;5095001;28;20685;-82
2021/12/07 07:09:18;;;;;;;26.50;25.00;;;;;;;;;;5094811;28;20200;-82
2021/12/07 07:11:45;;;;;;;24.03;22.63;;;;;;;;;;5095072;28;20198;-82
2021/12/07 07:14:14;;;;;;;26.93;25.43;;;;;;;;;;5094710;28;20194;-82
2021/12/07 07:16:40;;;;;;;26.37;24.87;;;;;;;;;;5094765;28;20582;-82
2021/12/07 07:19:07;;;;;;;26.90;25.30;;;;;;;;;;5094749;28;20751;-84
2021/12/07 07:21:34;;;;;;;24.60;22.90;;;;;;;;;;5094659;28;20232;-83
2021/12/07 07:24:02;;;;;;;22.27;20.87;;;;;;;;;;5094731;28;20220;-83
2021/12/07 07:26:29;;;;;;;23.30;21.90;;;;;;;;;;5094838;28;20196;-83
2021/12/07 07:28:56;;;;;;;25.00;23.50;;;;;;;;;;5094316;28;20780;-84
2021/12/07 07:31:22;;;;;;;23.07;21.67;;;;;;;;;;5094470;28;20221;-85
2021/12/07 07:33:49;;;;;;;22.90;21.60;;;;;;;;;;5094643;28;20225;-82
2021/12/07 07:36:16;;;;;;;22.50;21.20;;;;;;;;;;5094659;28;20292;-84
2021/12/07 07:38:43;;;;;;;20.47;19.27;;;;;;;;;;5094329;28;20244;-83
2021/12/07 07:41:11;;;;;;;19.73;18.63;;;;;;;;;;5094602;28;20194;-82
2021/12/07 07:43:37;;;;;;;20.60;19.40;;;;;;;;;;5094154;28;20201;-81
2021/12/07 07:46:04;;;;;;;20.20;19.10;;;;;;;;;;5094487;28;20233;-83
2021/12/07 07:48:31;;;;;;;18.97;17.97;;;;;;;;;;5094458;28;20197;-82
2021/12/07 07:50:59;;;;;;;21.03;19.93;;;;;;;;;;5094348;28;20255;-82
2021/12/07 07:53:25;;;;;;;19.70;18.70;;;;;;;;;;5093947;28;20316;-83
2021/12/07 07:55:52;;;;;;;19.67;18.67;;;;;;;;;;5094313;28;20270;-82
2021/12/07 07:58:20;;;;;;;20.53;19.53;;;;;;;;;;5094277;28;20267;-83
2021/12/07 08:00:48;;;;;;;19.50;18.50;;;;;;;;;;5093662;28;20201;-83
2021/12/07 08:03:15;;;;;;;18.10;17.20;;;;;;;;;;5094206;28;20243;-82
2021/12/07 08:05:42;;;;;;;18.40;17.50;;;;;;;;;;5093793;28;20189;-84
2021/12/07 08:08:08;;;;;;;20.53;19.53;;;;;;;;;;5094067;28;20197;-84
2021/12/07 08:10:35;;;;;;;17.67;16.77;;;;;;;;;;5093694;28;20194;-82
2021/12/07 08:13:03;;;;;;;19.83;18.83;;;;;;;;;;5094395;28;20222;-83
2021/12/07 08:15:33;;;;;;;18.60;17.60;;;;;;;;;;5093950;28;20198;-83
2021/12/07 08:18:00;;;;;;;17.87;16.97;;;;;;;;;;5093551;28;20683;-82
2021/12/07 08:20:27;;;;;;;18.40;17.50;;;;;;;;;;5093537;28;20233;-81
2021/12/07 08:22:54;;;;;;;18.20;17.30;;;;;;;;;;5093879;28;20281;-83
2021/12/07 08:25:20;;;;;;;20.20;19.20;;;;;;;;;;5093752;28;20197;-83
2021/12/07 08:27:47;;;;;;;21.00;19.90;;;;;;;;;;5093400;28;20202;-81
2021/12/07 08:30:15;;;;;;;17.90;17.00;;;;;;;;;;5093170;28;20222;-83
2021/12/07 08:32:45;;;;;;;19.47;18.43;;;;;;;;;;5093555;28;20229;-82
2021/12/07 08:35:12;;;;;;;20.10;18.80;;;;;;;;;;5093254;28;20660;-81
2021/12/07 08:37:38;;;;;;;22.93;21.53;;;;;;;;;;5093466;28;20221;-80
2021/12/07 08:40:06;;;;;;;22.67;21.20;;;;;;;;;;5093199;28;20197;-78
2021/12/07 08:42:33;;;;;;;19.57;18.57;;;;;;;;;;5093377;28;20255;-81
2021/12/07 08:44:59;;;;;;;20.83;19.83;;;;;;;;;;5093056;28;20189;-80
2021/12/07 08:47:26;;;;;;;18.10;17.20;;;;;;;;;;5093036;28;20751;-79
2021/12/07 08:49:54;;;;;;;21.77;20.67;;;;;;;;;;5092987;28;20656;-81
2021/12/07 08:52:21;;;;;;;22.80;21.90;;;;;;;;;;5093189;28;20198;-80
2021/12/07 09:00:17;;;;;;;19.03;18.03;;;;;;;;;;5093276;28;20192;-82
2021/12/07 09:02:43;;;;;;;19.37;18.27;;;;;;;;;;5092779;28;20198;-81
2021/12/07 09:05:12;;;;;;;21.13;19.93;;;;;;;;;;5093031;28;20579;-82
2021/12/07 09:07:38;;;;;;;21.10;19.90;;;;;;;;;;5093088;28;20194;-78
2021/12/07 09:10:06;;;;;;;23.03;21.73;;;;;;;;;;5092676;28;20680;-78
2021/12/07 09:12:32;;;;;;;23.67;22.17;;;;;;;;;;5092083;28;20197;-79
2021/12/07 09:14:59;;;;;;;24.00;22.60;;;;;;;;;;5093046;28;20220;-80
2021/12/07 09:17:26;;;;;;;25.10;23.63;;;;;;;;;;5092833;28;20197;-79
2021/12/07 09:19:53;;;;;;;20.83;19.63;;;;;;;;;;5093670;28;20285;-79
2021/12/07 09:22:21;;;;;;;24.93;23.43;;;;;;;;;;5092556;28;20194;-79
2021/12/07 09:24:48;;;;;;;27.17;25.47;;;;;;;;;;5092826;28;20197;-79
2021/12/07 09:27:14;;;;;;;24.03;22.43;;;;;;;;;;5092541;28;20675;-79
2021/12/07 09:29:41;;;;;;;23.80;22.30;;;;;;;;;;5092396;28;20343;-79
2021/12/07 09:32:09;;;;;;;23.80;22.20;;;;;;;;;;5092364;28;20197;-80
2021/12/07 09:34:36;;;;;;;23.63;22.13;;;;;;;;;;5092553;28;20232;-80
2021/12/07 09:37:03;;;;;;;23.90;22.40;;;;;;;;;;5092660;28;20262;-79
2021/12/07 09:39:31;;;;;;;23.43;21.93;;;;;;;;;;5092262;28;20197;-80
2021/12/07 09:41:58;;;;;;;24.03;22.73;;;;;;;;;;5092224;28;20742;-81
2021/12/07 09:44:25;;;;;;;24.63;23.23;;;;;;;;;;5092520;28;20281;-80
2021/12/07 09:46:51;;;;;;;23.40;22.10;;;;;;;;;;5092487;28;20267;-81
2021/12/07 09:49:18;;;;;;;25.03;23.67;;;;;;;;;;5092195;28;20333;-80
2021/12/07 09:51:45;;;;;;;21.83;20.57;;;;;;;;;;5092994;28;20255;-80
2021/12/07 09:54:12;;;;;;;20.90;19.70;;;;;;;;;;5092413;28;20318;-81
2021/12/07 09:56:40;;;;;;;26.10;24.50;;;;;;;;;;5092484;28;20659;-81
2021/12/07 09:59:08;;;;;;;25.67;24.13;;;;;;;;;;5092231;28;20615;-81
2021/12/07 10:01:36;;;;;;;24.03;22.63;;;;;;;;;;5092114;28;20258;-82
2021/12/07 10:04:03;;;;;;;25.27;23.77;;;;;;;;;;5092340;28;20219;-82
2021/12/07 10:06:30;;;;;;;23.00;21.60;;;;;;;;;;5092332;28;20320;-84
2021/12/07 10:08:57;;;;;;;24.17;22.67;;;;;;;;;;5092307;28;20276;-84
2021/12/07 10:11:24;;;;;;;25.13;23.73;;;;;;;;;;5092390;28;20216;-86
2021/12/07 10:13:53;;;;;;;26.83;25.33;;;;;;;;;;5092527;28;20663;-88
2021/12/07 10:16:21;;;;;;;25.60;23.90;;;;;;;;;;5093119;28;20276;-88
2021/12/07 10:18:49;;;;;;;26.30;24.60;;;;;;;;;;5092438;28;20200;-86
2021/12/07 10:21:16;;;;;;;26.57;24.77;;;;;;;;;;5094566;28;20588;-86
2021/12/07 10:23:44;;;;;;;26.53;24.73;;;;;;;;;;5097118;28;20190;-84
2021/12/07 10:26:12;;;;;;;24.63;22.93;;;;;;;;;;5110179;28;20194;-82
2021/12/07 10:28:40;;;;;;;27.67;25.80;;;;;;;;;;5113745;28;20197;-86
2021/12/07 10:31:25;;;;;;;25.83;24.23;;;;;;;;;;5100501;28;20278;-83
2021/12/07 10:33:54;;;;;;;29.60;27.60;;;;;;;;;;5096771;28;20683;-80
2021/12/07 10:36:23;;;;;;;34.23;32.13;;;;;;;;;;5097173;28;20194;-81
2021/12/07 10:38:54;;;;;;;30.83;28.83;;;;;;;;;;5096557;28;20197;-82
2021/12/07 10:41:24;;;;;;;32.80;30.70;;;;;;;;;;5095980;28;20194;-82
2021/12/07 10:43:53;;;;;;;27.80;26.10;;;;;;;;;;5095558;28;20205;-81
2021/12/07 10:46:34;;;;;;;28.77;26.97;;;;;;;;;;5096314;28;20233;-82
2021/12/07 10:49:25;;;;;;;29.63;27.53;;;;;;;;;;5095362;28;20204;-80
2021/12/07 10:51:56;;;;;;;28.13;26.33;;;;;;;;;;5095852;28;20186;-81
2021/12/07 10:54:23;;;;;;;28.53;26.63;;;;;;;;;;5095810;28;20326;-80
2021/12/07 10:56:51;;;;;;;26.87;25.07;;;;;;;;;;5095404;28;20233;-81
2021/12/07 10:59:18;;;;;;;28.87;26.97;;;;;;;;;;5095786;28;20190;-82
2021/12/07 11:01:47;;;;;;;25.63;24.03;;;;;;;;;;5095759;28;20285;-82
2021/12/07 11:04:25;;;;;;;27.77;26.00;;;;;;;;;;5095629;28;20201;-81
2021/12/07 11:07:07;;;;;;;28.07;26.33;;;;;;;;;;5095394;28;20189;-83
2021/12/07 11:09:38;;;;;;;27.00;25.20;;;;;;;;;;5095002;28;20194;-80
2021/12/07 11:12:08;;;;;;;26.30;24.50;;;;;;;;;;5095134;28;20186;-80
2021/12/07 11:14:47;;;;;;;26.63;24.93;;;;;;;;;;5095103;28;20278;-81
2021/12/07 11:17:14;;;;;;;25.63;23.93;;;;;;;;;;5095135;28;20239;-81
2021/12/07 11:19:41;;;;;;;24.40;22.90;;;;;;;;;;5094832;28;20190;-81
2021/12/07 11:22:12;;;;;;;23.57;22.17;;;;;;;;;;5095099;28;20197;-82
2021/12/07 11:24:43;;;;;;;23.10;21.70;;;;;;;;;;5094999;28;20198;-80
2021/12/07 11:29:58;;;;;;;24.20;22.70;;;;;;;;;;5094730;28;20631;-82
2021/12/07 11:32:25;;;;;;;24.43;22.97;;;;;;;;;;5094855;28;20202;-81
2021/12/07 11:34:52;;;;;;;23.37;21.97;;;;;;;;;;5093762;28;20320;-79
2021/12/07 11:37:22;;;;;;;23.43;21.93;;;;;;;;;;5094461;28;20739;-81
2021/12/07 11:39:51;;;;;;;25.73;24.13;;;;;;;;;;5094743;28;20272;-82
2021/12/07 11:42:19;;;;;;;25.27;23.77;;;;;;;;;;5094676;28;20217;-82
2021/12/07 11:44:49;;;;;;;23.47;22.07;;;;;;;;;;5094209;28;20229;-82
2021/12/07 11:47:16;;;;;;;22.00;20.70;;;;;;;;;;5094640;28;20197;-83
2021/12/07 11:49:42;;;;;;;22.23;20.93;;;;;;;;;;5094404;28;20273;-83
2021/12/07 11:52:10;;;;;;;23.87;22.47;;;;;;;;;;5094436;28;20233;-83
2021/12/07 11:54:40;;;;;;;22.77;21.47;;;;;;;;;;5094087;28;20229;-83
2021/12/07 11:57:08;;;;;;;22.97;21.67;;;;;;;;;;5094397;28;20261;-83
2021/12/07 11:59:35;;;;;;;25.83;24.23;;;;;;;;;;5094358;28;20251;-84
2021/12/07 12:02:02;;;;;;;24.53;23.03;;;;;;;;;;5093884;28;20193;-84
2021/12/07 12:04:29;;;;;;;24.83;23.23;;;;;;;;;;5094192;28;20255;-82
2021/12/07 12:06:57;;;;;;;25.00;23.50;;;;;;;;;;5093840;28;20194;-82
2021/12/07 12:09:24;;;;;;;27.60;26.00;;;;;;;;;;5094110;28;20648;-81
2021/12/07 12:11:57;;;;;;;23.00;21.70;;;;;;;;;;5094018;28;20239;-82
2021/12/07 12:14:42;;;;;;;22.93;21.53;;;;;;;;;;5094174;28;20224;-81
2021/12/07 12:17:10;;;;;;;23.77;22.27;;;;;;;;;;5093987;28;20259;-80
2021/12/07 12:19:44;;;;;;;24.23;22.73;;;;;;;;;;5093956;28;20229;-80
2021/12/07 12:22:15;;;;;;;25.53;23.97;;;;;;;;;;5093862;28;20739;-80
2021/12/07 12:24:45;;;;;;;25.20;23.67;;;;;;;;;;5093873;28;20241;-78
2021/12/07 12:27:15;;;;;;;25.50;24.00;;;;;;;;;;5093738;28;20226;-79
2021/12/07 12:29:42;;;;;;;25.27;23.77;;;;;;;;;;5093349;28;20312;-78
2021/12/07 12:32:09;;;;;;;25.77;24.17;;;;;;;;;;5093312;28;20198;-78
2021/12/07 12:34:37;;;;;;;25.67;24.07;;;;;;;;;;5093492;28;20644;-77
2021/12/07 12:37:05;;;;;;;26.83;25.07;;;;;;;;;;5093401;28;20280;-77
2021/12/07 12:39:46;;;;;;;26.80;25.10;;;;;;;;;;5093560;28;20278;-88
2021/12/07 12:42:17;;;;;;;25.40;23.80;;;;;;;;;;5093669;28;20228;-76
2021/12/07 12:44:44;;;;;;;25.70;24.10;;;;;;;;;;5093246;28;20225;-76
2021/12/07 12:47:11;;;;;;;24.40;23.00;;;;;;;;;;5092572;28;20635;-76
2021/12/07 12:49:39;;;;;;;23.50;22.10;;;;;;;;;;5093091;28;20698;-85
2021/12/07 12:52:06;;;;;;;24.40;23.00;;;;;;;;;;5093306;28;20276;-75
2021/12/07 12:54:38;;;;;;;25.37;23.87;;;;;;;;;;5093163;28;20264;-76
2021/12/07 12:57:09;;;;;;;24.07;22.67;;;;;;;;;;5093009;28;20652;-80
2021/12/07 12:59:39;;;;;;;25.73;24.17;;;;;;;;;;5092866;28;20272;-77
2021/12/07 13:02:06;;;;;;;28.43;26.63;;;;;;;;;;5092854;28;20254;-79
2021/12/07 13:04:34;;;;;;;26.40;24.77;;;;;;;;;;5093013;28;20276;-77
2021/12/07 13:09:48;;;;;;;27.53;25.87;;;;;;;;;;5093072;28;20314;-77
2021/12/07 13:12:17;;;;;;;26.77;25.17;;;;;;;;;;5092912;28;20243;-77
2021/12/07 13:14:56;;;;;;;25.20;23.70;;;;;;;;;;5092548;28;20225;-79
2021/12/07 13:17:24;;;;;;;25.67;24.17;;;;;;;;;;5092872;28;20323;-76
2021/12/07 13:20:02;;;;;;;25.77;24.27;;;;;;;;;;5092474;28;20715;-76
2021/12/07 13:22:34;;;;;;;26.53;24.93;;;;;;;;;;5092750;28;20246;-77
2021/12/07 13:25:05;;;;;;;25.10;23.60;;;;;;;;;;5092510;28;20247;-75
2021/12/07 13:27:32;;;;;;;29.63;27.63;;;;;;;;;;5092711;28;20190;-77
2021/12/07 13:30:00;;;;;;;30.57;28.67;;;;;;;;;;5092159;28;20761;-77
2021/12/07 13:32:27;;;;;;;30.73;28.83;;;;;;;;;;5092315;28;20284;-78
2021/12/07 13:35:00;;;;;;;31.13;29.20;;;;;;;;;;5092555;28;20390;-78
2021/12/07 13:37:44;;;;;;;29.53;27.73;;;;;;;;;;5092600;28;20193;-78
2021/12/07 13:40:17;;;;;;;22.90;21.70;;;;;;;;;;5092638;28;20186;-79
2021/12/07 13:42:47;;;;;;;23.90;22.60;;;;;;;;;;5092164;28;20273;-79
2021/12/07 13:45:17;;;;;;;27.03;25.33;;;;;;;;;;5092221;28;20186;-78
2021/12/07 13:47:45;;;;;;;24.23;22.87;;;;;;;;;;5092416;28;20194;-79
2021/12/07 13:50:13;;;;;;;25.03;23.53;;;;;;;;;;5092085;28;20233;-79
2021/12/07 13:52:41;;;;;;;25.17;23.67;;;;;;;;;;5092389;28;20194;-78
2021/12/07 13:55:10;;;;;;;30.37;28.37;;;;;;;;;;5092313;28;20664;-79
2021/12/07 13:57:38;;;;;;;26.03;24.53;;;;;;;;;;5092074;28;20243;-79
2021/12/07 14:00:10;;;;;;;25.17;23.77;;;;;;;;;;5095813;28;20200;-80
2021/12/07 14:02:40;;;;;;;24.80;23.40;;;;;;;;;;5096572;28;20218;-79
2021/12/07 14:05:09;;;;;;;23.57;22.27;;;;;;;;;;5096471;28;20277;-79
2021/12/07 14:07:36;;;;;;;23.17;21.87;;;;;;;;;;5096157;28;20198;-79
2021/12/07 14:10:08;;;;;;;28.53;27.03;;;;;;;;;;5096319;28;20201;-78
2021/12/07 14:12:35;;;;;;;31.87;30.07;;;;;;;;;;5096322;28;20193;-79
2021/12/07 14:15:06;;;;;;;26.03;24.53;;;;;;;;;;5095899;28;20221;-77
2021/12/07 14:17:42;;;;;;;24.73;23.43;;;;;;;;;;5095965;28;20194;-79
2021/12/07 14:20:09;;;;;;;27.00;25.60;;;;;;;;;;5095893;28;20197;-78
2021/12/07 14:22:36;;;;;;;25.87;24.47;;;;;;;;;;5096171;28;20194;-77
2021/12/07 14:25:03;;;;;;;24.23;22.93;;;;;;;;;;5096168;28;20197;-77
2021/12/07 14:27:30;;;;;;;28.17;26.67;;;;;;;;;;5095979;28;20280;-78
2021/12/07 14:29:56;;;;;;;27.53;25.93;;;;;;;;;;5095651;28;20331;-77
2021/12/07 14:32:23;;;;;;;25.77;24.47;;;;;;;;;;5095636;28;20642;-77
2021/12/07 14:34:51;;;;;;;28.47;26.97;;;;;;;;;;5095815;28;20233;-76
2021/12/07 14:37:18;;;;;;;25.67;24.23;;;;;;;;;;5095859;28;20247;-76
2021/12/07 14:39:46;;;;;;;25.47;24.07;;;;;;;;;;5095642;28;20668;-76
2021/12/07 14:42:15;;;;;;;26.70;25.20;;;;;;;;;;5095496;28;20215;-75
2021/12/07 14:44:42;;;;;;;29.53;27.93;;;;;;;;;;5095696;28;20628;-76
2021/12/07 14:47:10;;;;;;;26.87;25.47;;;;;;;;;;5095714;28;20190;-76
2021/12/07 14:49:38;;;;;;;26.10;24.60;;;;;;;;;;5095588;28;20251;-76
2021/12/07 14:52:10;;;;;;;25.63;24.27;;;;;;;;;;5095253;28;20193;-76
2021/12/07 14:54:37;;;;;;;24.80;23.50;;;;;;;;;;5095176;28;20205;-76
2021/12/07 14:57:04;;;;;;;22.23;21.03;;;;;;;;;;5095199;28;20277;-76
2021/12/07 14:59:31;;;;;;;25.43;24.03;;;;;;;;;;5095191;28;20757;-77
2021/12/07 15:01:58;;;;;;;24.40;23.10;;;;;;;;;;5095089;28;20624;-76
2021/12/07 15:04:26;;;;;;;24.53;23.23;;;;;;;;;;5095362;28;20198;-79
2021/12/07 15:06:57;;;;;;;25.50;24.17;;;;;;;;;;5095264;28;20193;-78
2021/12/07 15:09:27;;;;;;;23.87;22.60;;;;;;;;;;5094924;28;20194;-80
2021/12/07 15:11:54;;;;;;;23.97;22.73;;;;;;;;;;5094553;28;20194;-78
2021/12/07 15:14:22;;;;;;;21.13;19.87;;;;;;;;;;5095090;28;20281;-79
2021/12/07 15:16:49;;;;;;;23.97;22.67;;;;;;;;;;5095134;28;20204;-76
2021/12/07 15:19:16;;;;;;;25.47;24.07;;;;;;;;;;5094733;28;20240;-77
2021/12/07 15:21:43;;;;;;;21.80;20.60;;;;;;;;;;5095001;28;20293;-76
2021/12/07 15:24:10;;;;;;;23.60;22.30;;;;;;;;;;5094913;28;20281;-76
2021/12/07 15:26:39;;;;;;;22.40;21.20;;;;;;;;;;5094700;28;20255;-76
2021/12/07 15:29:08;;;;;;;22.57;21.37;;;;;;;;;;5094389;28;20657;-77
2021/12/07 15:31:37;;;;;;;22.57;21.37;;;;;;;;;;5094819;28;20228;-76
2021/12/07 15:34:04;;;;;;;23.70;22.40;;;;;;;;;;5094462;28;20229;-76
2021/12/07 15:36:31;;;;;;;25.23;23.83;;;;;;;;;;5094319;28;20733;-77
2021/12/07 15:39:12;;;;;;;24.90;23.47;;;;;;;;;;5094474;28;20731;-76
2021/12/07 15:41:41;;;;;;;25.40;24.00;;;;;;;;;;5094364;28;20280;-77
2021/12/07 15:44:08;;;;;;;25.27;23.87;;;;;;;;;;5094301;28;20235;-76
2021/12/07 15:46:35;;;;;;;21.90;20.60;;;;;;;;;;5094179;28;20197;-77
2021/12/07 15:49:02;;;;;;;28.60;26.90;;;;;;;;;;5094484;28;20543;-77